createdAt,value
2019-03-22T00:01:12.798Z,76.12
2019-03-22T00:06:22.622Z,71.00
2019-03-22T00:08:57.949Z,74.65
2019-03-22T00:11:33.559Z,78.00
2019-03-22T00:14:09.074Z,70.60
2019-03-22T00:16:44.675Z,74.77
2019-03-22T00:19:20.084Z,75.30
2019-03-22T00:21:55.614Z,75.00
2019-03-22T00:24:32.072Z,74.53
2019-03-22T00:27:16.060Z,74.25
2019-03-22T00:29:44.972Z,73.57
2019-03-22T00:32:20.548Z,73.55
2019-03-22T00:34:56.168Z,73.80
2019-03-22T00:37:31.655Z,79.40
2019-03-22T00:40:07.530Z,73.92
2019-03-22T00:42:43.847Z,76.22
2019-03-22T00:45:19.320Z,77.20
2019-03-22T00:48:03.940Z,78.28
2019-03-22T00:50:41.162Z,77.30
2019-03-22T00:53:16.623Z,71.28
2019-03-22T00:55:52.277Z,75.60
2019-03-22T00:58:40.699Z,76.12
2019-03-22T01:01:14.817Z,75.83
2019-03-22T01:03:50.137Z,80.10
2019-03-22T01:06:25.469Z,80.00
2019-03-22T01:09:01.045Z,78.92
2019-03-22T01:11:37.260Z,75.35
2019-03-22T01:14:12.794Z,79.58
2019-03-22T01:16:48.401Z,73.42
2019-03-22T01:19:23.799Z,70.92
2019-03-22T01:21:59.343Z,75.67
2019-03-22T01:24:34.778Z,74.77
2019-03-22T01:27:10.459Z,75.25
2019-03-22T01:29:45.932Z,74.25
2019-03-22T01:32:21.548Z,79.12
2019-03-22T01:34:57.977Z,80.17
2019-03-22T01:37:34.984Z,77.75
2019-03-22T01:40:10.831Z,76.60
2019-03-22T01:42:46.254Z,75.08
2019-03-22T01:45:22.024Z,79.85
2019-03-22T01:47:57.522Z,77.10
2019-03-22T01:50:32.946Z,79.20
2019-03-22T01:53:08.494Z,75.15
2019-03-22T01:55:43.966Z,78.67
2019-03-22T01:58:19.515Z,70.75
2019-03-22T02:00:55.114Z,70.35
2019-03-22T02:03:30.538Z,74.87
2019-03-22T02:06:06.045Z,77.45
2019-03-22T02:08:41.506Z,70.60
2019-03-22T02:11:16.981Z,66.97
2019-03-22T02:13:52.533Z,76.22
2019-03-22T02:16:27.859Z,70.20
2019-03-22T02:19:03.346Z,72.00
2019-03-22T02:21:38.781Z,78.83
2019-03-22T02:24:14.334Z,69.75
2019-03-22T02:26:49.797Z,69.67
2019-03-22T02:29:25.282Z,73.02
2019-03-22T02:32:00.634Z,76.10
2019-03-22T02:34:36.111Z,75.12
2019-03-22T02:37:11.690Z,74.70
2019-03-22T02:39:47.523Z,71.37
2019-03-22T02:42:23.227Z,65.92
2019-03-22T02:44:58.738Z,70.10
2019-03-22T02:47:34.314Z,70.85
2019-03-22T02:50:17.828Z,70.03
2019-03-22T02:52:48.303Z,71.70
2019-03-22T02:55:23.794Z,65.45
2019-03-22T02:57:59.178Z,67.85
2019-03-22T03:00:34.807Z,66.97
2019-03-22T03:03:10.347Z,67.22
2019-03-22T03:05:45.918Z,69.53
2019-03-22T03:08:21.327Z,67.08
2019-03-22T03:10:56.789Z,68.37
2019-03-22T03:13:32.254Z,79.20
2019-03-22T03:16:07.667Z,68.87
2019-03-22T03:18:43.203Z,71.28
2019-03-22T03:21:18.796Z,62.35
2019-03-22T03:23:54.438Z,65.67
2019-03-22T03:26:30.268Z,67.53
2019-03-22T03:29:05.668Z,67.50
2019-03-22T03:31:41.183Z,65.92
2019-03-22T03:34:16.689Z,62.80
2019-03-22T03:36:52.391Z,66.20
2019-03-22T03:39:27.781Z,70.70
2019-03-22T03:42:03.360Z,65.95
2019-03-22T03:44:38.929Z,64.72
2019-03-22T03:47:14.426Z,68.42
2019-03-22T03:49:49.949Z,73.83
2019-03-22T03:52:25.424Z,78.80
2019-03-22T03:55:00.871Z,80.22
2019-03-22T03:57:36.298Z,78.00
2019-03-22T04:00:12.017Z,81.37
2019-03-22T04:02:47.419Z,85.20
2019-03-22T04:05:22.797Z,82.02
2019-03-22T04:07:58.505Z,82.67
2019-03-22T04:10:34.329Z,88.15
2019-03-22T04:13:09.731Z,84.90
2019-03-22T04:15:45.505Z,84.75
2019-03-22T04:18:21.082Z,87.85
2019-03-22T04:20:56.616Z,89.05
2019-03-22T04:23:32.253Z,85.75
2019-03-22T04:26:07.669Z,99.55
2019-03-22T04:28:43.253Z,113.45
2019-03-22T04:31:18.725Z,101.70
2019-03-22T04:33:54.184Z,125.87
2019-03-22T04:36:29.935Z,121.60
2019-03-22T04:39:07.524Z,153.25
2019-03-22T04:41:42.941Z,153.02
2019-03-22T04:44:18.435Z,131.80
2019-03-22T04:46:54.196Z,130.25
2019-03-22T04:49:29.636Z,144.45
2019-03-22T04:52:05.231Z,123.58
2019-03-22T04:54:40.750Z,137.60
2019-03-22T04:57:16.307Z,132.12
2019-03-22T04:59:51.734Z,119.77
2019-03-22T05:02:27.250Z,121.15
2019-03-22T05:05:02.960Z,116.57
2019-03-22T05:07:38.352Z,87.57
2019-03-22T05:10:13.893Z,117.75
2019-03-22T05:12:49.562Z,133.50
2019-03-22T05:15:25.007Z,91.60
2019-03-22T05:18:00.762Z,130.90
2019-03-22T05:20:37.099Z,132.72
2019-03-22T05:23:12.803Z,121.25
2019-03-22T05:25:48.294Z,103.67
2019-03-22T05:28:24.036Z,94.85
2019-03-22T05:31:33.582Z,91.72
2019-03-22T05:34:09.299Z,83.78
2019-03-22T05:36:44.797Z,79.60
2019-03-22T05:39:20.421Z,111.40
2019-03-22T05:41:55.867Z,122.72
2019-03-22T05:44:31.424Z,113.12
2019-03-22T05:47:06.840Z,110.40
2019-03-22T05:49:42.303Z,71.60
2019-03-22T05:52:17.867Z,102.53
2019-03-22T05:54:53.267Z,79.35
2019-03-22T05:57:28.873Z,105.65
2019-03-22T06:00:05.224Z,84.72
2019-03-22T06:02:40.661Z,89.75
2019-03-22T06:05:16.074Z,80.90
2019-03-22T06:07:51.571Z,88.72
2019-03-22T06:10:27.271Z,105.03
2019-03-22T06:13:02.872Z,103.00
2019-03-22T06:15:38.362Z,71.90
2019-03-22T06:18:13.722Z,74.10
2019-03-22T06:20:49.242Z,81.92
2019-03-22T06:23:24.676Z,65.72
2019-03-22T06:26:00.183Z,73.28
2019-03-22T06:28:35.712Z,88.82
2019-03-22T06:31:11.102Z,75.50
2019-03-22T06:33:46.546Z,61.02
2019-03-22T06:36:24.053Z,64.15
2019-03-22T06:38:59.312Z,68.95
2019-03-22T06:41:35.000Z,63.50
2019-03-22T06:44:10.509Z,80.05
2019-03-22T06:46:46.049Z,60.20
2019-03-22T06:49:22.784Z,64.47
2019-03-22T06:51:58.322Z,63.10
2019-03-22T06:54:33.757Z,64.82
2019-03-22T06:57:09.275Z,62.95
2019-03-22T06:59:44.625Z,60.73
2019-03-22T07:02:21.769Z,58.05
2019-03-22T07:04:57.435Z,57.08
2019-03-22T07:07:32.939Z,54.50
2019-03-22T07:10:12.131Z,52.95
2019-03-22T07:12:47.685Z,51.55
2019-03-22T07:15:23.184Z,51.65
2019-03-22T07:17:58.859Z,50.73
2019-03-22T07:20:34.419Z,47.67
2019-03-22T07:23:09.789Z,47.70
2019-03-22T07:25:45.270Z,50.05
2019-03-22T07:28:20.952Z,46.90
2019-03-22T07:30:56.403Z,45.43
2019-03-22T07:33:34.056Z,45.28
2019-03-22T07:36:09.842Z,46.60
2019-03-22T07:38:45.260Z,45.15
2019-03-22T07:41:20.670Z,47.13
2019-03-22T07:43:56.557Z,45.45
2019-03-22T07:46:35.016Z,45.03
2019-03-22T07:49:10.512Z,45.38
2019-03-22T07:51:46.066Z,44.95
2019-03-22T07:54:21.538Z,42.90
2019-03-22T07:56:57.382Z,46.37
2019-03-22T07:59:32.780Z,45.45
2019-03-22T08:02:09.135Z,44.88
2019-03-22T08:04:44.608Z,45.08
2019-03-22T08:07:20.188Z,46.02
2019-03-22T08:09:55.806Z,43.87
2019-03-22T08:12:31.343Z,43.85
2019-03-22T08:15:08.346Z,43.42
2019-03-22T08:17:44.197Z,43.35
2019-03-22T08:20:20.551Z,44.55
2019-03-22T08:22:56.237Z,42.05
2019-03-22T08:25:32.628Z,40.73
2019-03-22T08:28:08.217Z,38.83
2019-03-22T08:30:43.735Z,39.08
2019-03-22T08:33:19.337Z,37.03
2019-03-22T08:35:54.752Z,35.43
2019-03-22T08:38:30.416Z,35.25
2019-03-22T08:41:06.302Z,36.35
2019-03-22T08:43:42.057Z,36.23
2019-03-22T08:46:17.602Z,35.83
2019-03-22T08:48:54.103Z,35.70
2019-03-22T08:51:30.095Z,33.53
2019-03-22T08:54:06.682Z,31.40
2019-03-22T08:56:42.165Z,30.60
2019-03-22T08:59:18.106Z,29.30
2019-03-22T09:02:08.398Z,30.12
2019-03-22T09:04:43.941Z,27.93
2019-03-22T09:07:19.462Z,26.87
2019-03-22T09:09:54.977Z,25.85
2019-03-22T09:12:33.276Z,25.60
2019-03-22T09:15:08.871Z,26.95
2019-03-22T09:17:44.312Z,26.60
2019-03-22T09:20:19.926Z,25.65
2019-03-22T09:22:55.538Z,26.25
2019-03-22T09:25:31.153Z,23.65
2019-03-22T09:28:06.632Z,24.02
2019-03-22T09:30:42.329Z,22.35
2019-03-22T09:33:17.699Z,22.52
2019-03-22T09:35:53.399Z,23.35
2019-03-22T09:38:28.791Z,19.65
2019-03-22T09:41:04.417Z,17.50
2019-03-22T09:43:39.850Z,18.02
2019-03-22T09:46:15.360Z,16.27
2019-03-22T09:48:50.785Z,16.40
2019-03-22T09:51:27.421Z,14.10
2019-03-22T09:54:02.981Z,15.75
2019-03-22T09:56:46.789Z,15.15
2019-03-22T09:59:15.511Z,12.90
2019-03-22T10:01:51.199Z,10.95
2019-03-22T10:04:26.818Z,8.63
2019-03-22T10:07:02.335Z,8.45
2019-03-22T10:09:37.858Z,11.45
2019-03-22T10:12:13.325Z,11.35
2019-03-22T10:14:48.883Z,13.03
2019-03-22T10:17:25.419Z,11.90
2019-03-22T10:20:00.942Z,11.60
2019-03-22T10:22:46.779Z,11.70
2019-03-22T10:25:18.699Z,11.15
2019-03-22T10:27:54.258Z,13.00
2019-03-22T10:30:29.789Z,12.13
2019-03-22T10:33:05.370Z,11.18
2019-03-22T10:35:40.912Z,11.20
2019-03-22T11:07:03.506Z,7.50
2019-03-22T11:09:39.095Z,7.22
2019-03-22T11:12:14.626Z,7.30
2019-03-22T11:14:50.301Z,8.13
2019-03-22T11:17:25.874Z,8.13
2019-03-22T11:20:01.367Z,7.12
2019-03-22T11:22:37.031Z,6.72
2019-03-22T11:25:12.672Z,7.42
2019-03-22T11:27:48.333Z,7.45
2019-03-22T11:30:23.897Z,8.28
2019-03-22T11:32:59.553Z,7.75
2019-03-22T11:35:37.092Z,7.40
2019-03-22T11:38:12.244Z,7.65
2019-03-22T11:40:47.961Z,7.80
2019-03-22T11:43:25.572Z,6.78
2019-03-22T11:46:00.879Z,7.25
2019-03-22T11:48:36.618Z,7.55
2019-03-22T11:51:12.069Z,6.65
2019-03-22T11:53:47.756Z,6.65
2019-03-22T11:56:23.190Z,6.22
2019-03-22T11:58:58.687Z,6.17
2019-03-22T12:01:34.224Z,6.42
2019-03-22T12:04:11.807Z,5.92
2019-03-22T12:06:47.082Z,6.20
2019-03-22T12:09:23.070Z,6.30
2019-03-22T12:11:58.564Z,6.15
2019-03-22T12:14:34.165Z,6.58
2019-03-22T12:17:09.738Z,6.70
2019-03-22T12:19:45.398Z,6.97
2019-03-22T12:22:20.926Z,5.78
2019-03-22T12:24:56.579Z,5.87
2019-03-22T12:27:36.525Z,6.17
2019-03-22T12:30:11.902Z,5.80
2019-03-22T12:32:47.444Z,6.08
2019-03-22T12:35:23.089Z,6.80
2019-03-22T12:37:59.209Z,7.60
2019-03-22T12:40:35.069Z,7.25
2019-03-22T12:43:10.673Z,6.78
2019-03-22T12:45:46.311Z,7.70
2019-03-22T12:48:22.057Z,7.37
2019-03-22T12:50:57.945Z,8.35
2019-03-22T12:53:33.635Z,8.90
2019-03-22T12:56:09.253Z,9.03
2019-03-22T12:58:44.902Z,7.72
2019-03-22T13:01:20.454Z,8.23
2019-03-22T13:03:56.067Z,9.53
2019-03-22T13:06:31.612Z,9.10
2019-03-22T13:09:09.268Z,9.33
2019-03-22T13:11:44.848Z,9.38
2019-03-22T13:14:20.519Z,9.30
2019-03-22T13:16:57.268Z,8.30
2019-03-22T13:19:32.856Z,8.25
2019-03-22T13:22:08.725Z,8.33
2019-03-22T13:24:44.476Z,9.30
2019-03-22T13:27:20.074Z,9.93
2019-03-22T13:29:55.713Z,10.55
2019-03-22T13:32:31.156Z,11.25
2019-03-22T13:35:06.780Z,11.73
2019-03-22T13:37:42.385Z,12.95
2019-03-22T13:40:17.937Z,12.23
2019-03-22T13:42:53.506Z,13.50
2019-03-22T13:45:29.284Z,12.82
2019-03-22T13:48:05.033Z,11.95
2019-03-22T13:50:40.633Z,10.75
2019-03-22T13:53:16.251Z,11.08
2019-03-22T13:55:51.785Z,11.68
2019-03-22T13:58:27.634Z,11.60
2019-03-22T14:01:03.328Z,11.08
2019-03-22T14:03:38.835Z,10.55
2019-03-22T14:06:14.575Z,12.30
2019-03-22T14:08:50.027Z,10.72
2019-03-22T14:11:25.871Z,12.80
2019-03-22T14:14:01.518Z,13.05
2019-03-22T14:16:37.365Z,11.40
2019-03-22T14:19:12.992Z,11.03
2019-03-22T14:21:48.518Z,11.28
2019-03-22T14:24:24.160Z,11.40
2019-03-22T14:26:59.840Z,10.90
2019-03-22T14:29:35.414Z,10.60
2019-03-22T14:32:10.951Z,12.33
2019-03-22T14:34:46.450Z,12.88
2019-03-22T14:37:22.103Z,12.68
2019-03-22T14:39:57.542Z,12.10
2019-03-22T14:42:33.074Z,11.20
2019-03-22T14:45:08.936Z,11.83
2019-03-22T14:47:44.479Z,11.22
2019-03-22T14:50:19.978Z,11.88
2019-03-22T14:52:55.718Z,12.47
2019-03-22T14:55:31.318Z,11.53
2019-03-22T14:58:06.928Z,11.45
2019-03-22T15:00:42.554Z,11.55
2019-03-22T15:03:26.996Z,10.38
2019-03-22T15:06:05.157Z,10.82
2019-03-22T15:08:40.764Z,10.60
2019-03-22T15:37:49.178Z,14.03
2019-03-22T15:40:24.873Z,12.15
2019-03-22T15:45:41.355Z,12.63
2019-03-22T15:48:17.010Z,12.68
2019-03-22T15:50:52.704Z,11.65
2019-03-22T15:53:28.523Z,12.82
2019-03-22T15:56:03.957Z,12.33
2019-03-22T15:58:39.547Z,11.75
2019-03-22T16:01:15.201Z,12.37
2019-03-22T16:03:50.841Z,12.23
2019-03-22T16:06:26.435Z,12.13
2019-03-22T16:09:02.158Z,11.78
2019-03-22T16:11:39.318Z,11.50
2019-03-22T16:14:14.912Z,13.40
2019-03-22T16:16:57.505Z,13.28
2019-03-22T16:19:34.834Z,11.65
2019-03-22T16:22:10.354Z,12.50
2019-03-22T16:24:46.048Z,11.55
2019-03-22T16:27:21.762Z,11.60
2019-03-22T16:29:57.447Z,11.05
2019-03-22T16:32:33.244Z,11.95
2019-03-22T16:35:08.848Z,12.80
2019-03-22T16:37:44.487Z,12.82
2019-03-22T16:40:24.167Z,12.73
2019-03-22T16:42:57.598Z,12.47
2019-03-22T16:45:40.702Z,13.58
2019-03-22T16:48:16.656Z,12.55
2019-03-22T16:50:52.309Z,12.75
2019-03-22T16:53:27.911Z,12.95
2019-03-22T16:56:03.701Z,11.45
2019-03-22T16:58:39.322Z,10.63
2019-03-22T17:01:14.852Z,8.88
2019-03-22T17:03:50.419Z,9.08
2019-03-22T17:06:26.215Z,10.23
2019-03-22T17:09:05.319Z,10.65
2019-03-22T17:11:41.073Z,11.43
2019-03-22T17:14:16.645Z,11.00
2019-03-22T17:16:52.147Z,9.63
2019-03-22T17:19:28.022Z,10.00
2019-03-22T17:22:03.677Z,8.70
2019-03-22T17:24:39.528Z,9.35
2019-03-22T17:27:16.321Z,8.65
2019-03-22T17:29:52.062Z,8.03
2019-03-22T17:32:27.663Z,8.10
2019-03-22T17:35:03.336Z,8.13
2019-03-22T17:37:38.970Z,8.80
2019-03-22T17:40:14.776Z,8.45
2019-03-22T17:42:50.425Z,8.85
2019-03-22T17:45:25.965Z,8.78
2019-03-22T17:48:01.673Z,7.28
2019-03-22T17:50:38.114Z,7.83
2019-03-22T17:53:13.658Z,7.90
2019-03-22T17:55:49.322Z,7.60
2019-03-22T17:58:24.947Z,7.80
2019-03-22T18:01:07.590Z,8.73
2019-03-22T18:03:43.136Z,8.73
2019-03-22T18:06:18.728Z,9.03
2019-03-22T18:08:54.328Z,9.05
2019-03-22T18:11:33.014Z,10.28
2019-03-22T18:14:08.538Z,10.00
2019-03-22T18:16:44.328Z,9.55
2019-03-22T18:19:19.958Z,8.83
2019-03-22T18:21:58.392Z,10.23
2019-03-22T18:24:34.390Z,9.90
2019-03-22T18:27:11.126Z,9.88
2019-03-22T18:29:46.778Z,9.83
2019-03-22T18:32:25.001Z,9.80
2019-03-22T18:35:01.573Z,9.85
2019-03-22T18:37:40.514Z,10.40
2019-03-22T18:40:26.066Z,11.10
2019-03-22T18:43:01.495Z,10.85
2019-03-22T18:45:39.453Z,10.45
2019-03-22T18:48:15.369Z,11.25
2019-03-22T18:50:57.027Z,10.60
2019-03-22T18:53:31.406Z,11.38
2019-03-22T18:56:07.087Z,12.28
2019-03-22T18:58:42.627Z,11.63
2019-03-22T19:01:18.459Z,11.00
2019-03-22T19:03:54.145Z,11.75
2019-03-22T19:06:37.268Z,11.97
2019-03-22T19:09:14.434Z,11.65
2019-03-22T19:11:52.283Z,11.35
2019-03-22T19:14:27.847Z,11.40
2019-03-22T19:17:03.424Z,11.43
2019-03-22T19:19:39.027Z,12.70
2019-03-22T19:22:14.790Z,12.50
2019-03-22T19:24:50.420Z,11.50
2019-03-22T19:27:27.166Z,11.33
2019-03-22T19:30:04.573Z,11.45
2019-03-22T19:32:40.173Z,12.45
2019-03-22T19:35:15.866Z,11.57
2019-03-22T19:37:52.850Z,12.50
2019-03-22T19:40:28.514Z,12.75
2019-03-22T19:43:04.217Z,13.85
2019-03-22T19:45:41.482Z,15.83
2019-03-22T19:48:19.404Z,16.48
2019-03-22T19:51:00.358Z,16.27
2019-03-22T19:53:37.780Z,17.12
2019-03-22T19:56:14.238Z,16.82
2019-03-22T19:58:49.868Z,15.98
2019-03-22T20:01:36.562Z,15.20
2019-03-22T20:04:12.198Z,14.38
2019-03-22T20:06:47.695Z,14.78
2019-03-22T20:09:23.315Z,15.08
2019-03-22T20:11:58.986Z,14.93
2019-03-22T20:14:34.489Z,15.85
2019-03-22T20:17:10.128Z,16.02
2019-03-22T20:19:45.820Z,16.52
2019-03-22T20:22:21.413Z,18.82
2019-03-22T20:24:57.382Z,17.37
2019-03-22T20:27:32.901Z,18.27
2019-03-22T20:30:08.684Z,19.45
2019-03-22T20:32:44.335Z,19.80
2019-03-22T20:35:19.867Z,21.33
2019-03-22T20:37:55.486Z,20.72
2019-03-22T20:40:31.175Z,21.27
2019-03-22T20:43:07.058Z,21.62
2019-03-22T20:45:42.704Z,21.45
2019-03-22T20:48:18.972Z,21.10
2019-03-22T20:50:54.599Z,20.75
2019-03-22T20:53:30.140Z,20.12
2019-03-22T20:56:05.851Z,20.12
2019-03-22T20:58:41.486Z,19.77
2019-03-22T21:01:17.035Z,19.85
2019-03-22T21:03:52.714Z,20.70
2019-03-22T21:06:28.382Z,20.85
2019-03-22T21:09:05.450Z,19.32
2019-03-22T21:11:41.170Z,20.90
2019-03-22T21:14:16.790Z,19.95
2019-03-22T21:16:52.236Z,21.52
2019-03-22T21:19:27.870Z,23.67
2019-03-22T21:22:03.512Z,24.87
2019-03-22T21:24:39.120Z,26.00
2019-03-22T21:27:15.814Z,29.32
2019-03-22T21:29:51.845Z,26.97
2019-03-22T21:32:27.355Z,29.72
2019-03-22T21:35:03.106Z,28.75
2019-03-22T21:37:38.855Z,29.32
2019-03-22T21:40:14.388Z,30.48
2019-03-22T21:42:52.998Z,33.63
2019-03-22T21:45:28.713Z,32.63
2019-03-22T21:48:04.305Z,33.78
2019-03-22T21:50:39.783Z,36.08
2019-03-22T21:53:15.285Z,36.98
2019-03-22T21:55:54.243Z,34.38
2019-03-22T21:58:29.955Z,34.13
2019-03-22T22:01:05.424Z,36.40
2019-03-22T22:03:41.051Z,35.45
2019-03-22T22:06:16.690Z,37.05
2019-03-22T22:08:52.358Z,34.70
2019-03-22T22:11:27.848Z,39.10
2019-03-22T22:14:03.540Z,37.08
2019-03-22T22:16:39.119Z,38.38
2019-03-22T22:19:14.808Z,37.88
2019-03-22T22:21:50.608Z,37.00
2019-03-22T22:24:26.104Z,38.30
2019-03-22T22:27:13.053Z,38.67
2019-03-22T22:29:39.124Z,36.95
2019-03-22T22:32:14.892Z,39.33
2019-03-22T22:34:50.361Z,39.08
2019-03-22T22:37:27.071Z,39.75
2019-03-22T22:40:02.724Z,39.58
2019-03-22T22:42:38.536Z,39.85
2019-03-22T22:45:14.265Z,37.65
2019-03-22T22:47:49.837Z,37.80
2019-03-22T22:50:25.443Z,37.17
2019-03-22T22:53:01.095Z,39.13
2019-03-22T22:55:36.611Z,38.10
2019-03-22T22:58:13.239Z,39.30
2019-03-22T23:00:48.842Z,39.30
2019-03-22T23:03:26.019Z,37.80
2019-03-22T23:06:09.265Z,38.20
2019-03-22T23:08:38.777Z,37.95
2019-03-22T23:11:14.357Z,37.75
2019-03-22T23:13:49.987Z,39.15
2019-03-22T23:16:25.643Z,40.55
2019-03-22T23:19:01.323Z,40.73
2019-03-22T23:21:36.924Z,39.88
2019-03-22T23:24:12.518Z,40.00
2019-03-22T23:26:48.403Z,40.40
2019-03-22T23:29:23.939Z,42.27
2019-03-22T23:31:59.600Z,43.87
2019-03-22T23:34:35.257Z,46.73
2019-03-22T23:37:10.742Z,47.03
2019-03-22T23:39:46.314Z,47.93
2019-03-22T23:42:21.879Z,50.78
2019-03-22T23:44:58.545Z,49.03
2019-03-22T23:47:34.039Z,47.55
2019-03-22T23:50:09.845Z,47.40
2019-03-22T23:52:45.486Z,48.73
2019-03-22T23:55:21.117Z,48.20
2019-03-22T23:57:56.760Z,56.88
